CW0099 Weather Reports


Display with metric or nautical units.
time (UTC)temp
F
wind
direction
speed
MPH
gust
MPH
rain 1hr
in
rain 24hr
in
rain mn
in
humidity
%
barometer
mb
20171023002828 52 329 3.0 10.0 0.06 0.21 0.22 94 1016.5
20171023001728 53 340 4.0 4.0 0.04 0.20 0.20 96 1016.7
20171023000628 53 336 0.0 0.0 0.03 0.19 0.19 95 1016.8
20171022235528 53 347 2.0 9.0 0.05 0.19 0.19 97 1016.5
20171022233328 54 342 0.0 2.0 0.05 0.19 0.19 96 1016.6
20171022232228 54 339 4.0 9.0 0.04 0.18 0.18 95 1016.7
20171022231154 54 334 0.0 4.0 0.03 0.17 0.17 94 1016.6
20171022221628 56 327 3.0 8.0 0.00 0.14 0.14 89 1016.3
20171022220533 56 333 5.0 10.0 0.00 0.14 0.14 89 1016.0
20171022215428 56 355 4.0 10.0 0.00 0.14 0.14 89 1016.0
20171022214328 56 3 2.0 9.0 0.00 0.14 0.14 90 1016.1
20171022212148 55 5 1.0 9.0 0.00 0.14 0.14 92 1016.3
20171022205928 55 340 0.0 15.0 0.00 0.14 0.14 94 1016.5
20171022204828 55 17 4.0 15.0 0.00 0.14 0.14 95 1016.4
20171022203728 55 21 3.0 12.0 0.00 0.14 0.14 95 1016.8
20171022201612 55 0 0.0 17.0 0.00 0.14 0.14 93 1016.8
20171022195328 56 12 5.0 13.0 0.00 0.14 0.14 92 1016.5
20171022194228 56 346 6.0 13.0 0.00 0.14 0.14 92 1016.7
20171022193128 56 328 11.0 14.0 0.00 0.14 0.14 93 1016.6
20171022190953 56 354 5.0 10.0 0.00 0.14 0.14 98 1016.5
20171022184728 57 317 3.0 12.0 0.00 0.14 0.14 98 1016.0
20171022182528 58 302 4.0 11.0 0.00 0.14 0.14 99 1015.4
20171022181428 59 339 8.0 11.0 0.00 0.14 0.14 100 1015.3
20171022180427 59 322 0.0 11.0 0.00 0.14 0.14 100 1015.3
20171022175228 59 336 2.0 11.0 0.00 0.14 0.14 100 1015.4
20171022174128 59 358 6.0 10.0 0.00 0.14 0.14 100 1015.3
20171022171931 60 326 4.0 10.0 0.00 0.14 0.14 99 1015.1
20171022165728 62 344 0.0 8.0 0.00 0.14 0.14 100 1014.7
20171022163528 62 313 0.0 5.0 0.00 0.14 0.14 99 1014.2
20171022162428 62 281 1.0 6.0 0.00 0.14 0.14 99 1014.4
20171022161328 63 253 0.0 1.0 0.00 0.14 0.14 100 1014.3
20171022160228 63 308 0.0 6.0 0.00 0.14 0.14 100 1014.0
20171022154028 63 337 0.0 6.0 0.00 0.14 0.14 99 1013.4
20171022152929 62 304 0.0 1.0 0.00 0.14 0.14 100 1013.4
20171022151828 62 335 0.0 1.0 0.00 0.14 0.14 100 1013.5
20171022150731 62 0 0.0 0.0 0.00 0.14 0.14 100 1013.1
20171022145628 62 0 0.0 5.0 0.00 0.14 0.14 100 1013.2
20171022144528 62 327 4.0 5.0 0.00 0.14 0.14 99 1013.1
20171022141228 62 291 0.0 10.0 0.00 0.14 0.14 99 1013.4
20171022140238 62 311 0.0 5.0 0.06 0.14 0.14 98 1012.9
20171022135028 63 306 0.0 5.0 0.06 0.14 0.14 99 1012.9
20171022133928 63 286 0.0 3.0 0.06 0.14 0.14 99 1012.8
20171022132828 63 272 0.0 5.0 0.14 0.14 0.14 99 1012.6
20171022131728 64 312 3.0 3.0 0.14 0.14 0.14 98 1012.6
20171022125528 66 305 3.0 6.0 0.13 0.14 0.13 96 1011.6
20171022124428 67 286 0.0 5.0 0.13 0.14 0.13 92 1012.1
20171022122228 69 179 3.0 15.0 0.07 0.09 0.07 91 1011.4
20171022121152 70 177 4.0 11.0 0.02 0.04 0.02 89 1011.5
20171022120028 70 141 1.0 17.0 0.00 0.02 0.00 89 1011.1
20171022113828 70 147 6.0 14.0 0.00 0.02 0.00 88 1011.1
20171022112728 70 138 5.0 16.0 0.00 0.02 0.00 87 1010.8
20171022111628 70 141 5.0 14.0 0.00 0.02 0.00 87 1011.0
20171022110528 70 110 3.0 8.0 0.00 0.02 0.00 86 1010.9
20171022104328 70 177 10.0 13.0 0.00 0.02 0.00 87 1010.9
20171022103228 70 131 0.0 4.0 0.00 0.02 0.00 86 1011.0
20171022101028 69 140 0.0 7.0 0.00 0.02 0.00 86 1011.1
20171022091531 69 165 0.0 10.0 0.00 0.02 0.00 84 1011.2
20171022083128 69 180 4.0 13.0 0.00 0.02 0.00 84 1011.7
20171022082028 69 97 0.0 10.0 0.00 0.02 0.00 84 1011.8
20171022073628 70 158 7.0 9.0 0.00 0.02 0.00 81 1011.7
20171022071428 70 129 3.0 10.0 0.00 0.02 0.00 81 1012.3
20171022070431 70 187 0.0 10.0 0.00 0.02 0.00 81 1012.6
20171022065228 70 156 2.0 10.0 0.00 0.02 0.00 81 1012.8
20171022064128 70 154 0.0 10.0 0.00 0.02 0.00 81 1013.0
20171022063037 70 164 4.0 10.0 0.00 0.02 0.00 80 1013.3
20171022060828 70 137 4.0 6.0 0.00 0.02 0.00 79 1013.6
20171022054628 70 157 10.0 11.0 0.00 0.02 0.00 79 1014.1
20171022052428 70 169 3.0 8.0 0.00 0.02 0.00 78 1014.5
20171022051328 70 129 0.0 5.0 0.00 0.02 0.00 78 1014.4
20171022050228 70 125 0.0 5.0 0.00 0.02 0.02 77 1014.8
20171022045128 71 118 0.0 5.0 0.00 0.02 0.02 77 1015.0
20171022044028 71 138 0.0 5.0 0.00 0.02 0.02 77 1015.0
20171022040751 72 220 0.0 0.0 0.00 0.02 0.02 75 1015.2
20171022034614 72 153 0.0 7.0 0.00 0.02 0.02 74 1015.0
20171022033428 72 128 0.0 5.0 0.00 0.02 0.02 73 1014.8
20171022032328 72 174 5.0 11.0 0.00 0.02 0.02 73 1014.7
20171022015528 74 172 7.0 16.0 0.00 0.02 0.02 68 1013.9
20171022014428 74 164 5.0 14.0 0.00 0.02 0.02 68 1014.0
20171022012228 75 144 3.0 13.0 0.00 0.02 0.02 67 1014.1
20171022011128 75 140 5.0 13.0 0.00 0.02 0.02 66 1014.3
20171022004928 75 165 0.0 11.0 0.00 0.02 0.02 66 1014.2